Аэропорт: Владикавказ (Беслан). Владикавказ

ICAO: URMO

METAR:
2019-09-21 16:00:00
URMO 211600Z 22003MPS 9999 BKN047 09/07 Q1018 R09/010070 NOSIG RMK QFE720/0960
METAR:
2019-09-21 14:00:00
TAF URMO 211400Z 2115/2124 24003G08MPS 9999 BKN030 TEMPO 2115/2118 3100 -SHRA SCT011 BKN020CB